createdAt,value
2023-01-21T00:01:06.393Z,101039.91
2023-01-21T00:03:08.569Z,101049.63
2023-01-21T00:05:10.164Z,101051.50
2023-01-21T00:07:11.751Z,101047.31
2023-01-21T00:09:15.319Z,101054.16
2023-01-21T00:11:16.842Z,101056.06
2023-01-21T00:13:18.459Z,101053.75
2023-01-21T00:15:20.250Z,101054.81
2023-01-21T00:17:21.846Z,101053.03
2023-01-21T00:19:23.510Z,101055.47
2023-01-21T00:21:25.092Z,101061.84
2023-01-21T00:23:26.971Z,101055.41
2023-01-21T00:25:30.207Z,101062.53
2023-01-21T00:27:31.771Z,101062.69
2023-01-21T00:29:33.349Z,101056.06
2023-01-21T00:31:35.023Z,101071.72
2023-01-21T00:33:36.831Z,101073.94
2023-01-21T00:35:38.401Z,101071.47
2023-01-21T00:37:40.141Z,101074.69
2023-01-21T00:39:41.724Z,101078.56
2023-01-21T00:41:44.649Z,101081.59
2023-01-21T00:43:46.210Z,101087.88
2023-01-21T00:45:47.881Z,101083.59
2023-01-21T00:47:49.457Z,101092.41
2023-01-21T00:49:51.000Z,101083.34
2023-01-21T00:51:52.596Z,101091.00
2023-01-21T00:53:54.348Z,101089.38
2023-01-21T00:55:59.047Z,101100.50
2023-01-21T00:58:02.231Z,101102.44
2023-01-21T01:00:04.996Z,101102.22
2023-01-21T01:02:06.606Z,101103.69
2023-01-21T01:04:08.735Z,101104.50
2023-01-21T01:06:12.562Z,101111.09
2023-01-21T01:08:14.126Z,101115.19
2023-01-21T01:10:16.871Z,101115.69
2023-01-21T01:12:18.515Z,101118.38
2023-01-21T01:14:21.535Z,101122.00
2023-01-21T01:16:23.946Z,101125.88
2023-01-21T01:18:26.938Z,101129.94
2023-01-21T01:20:28.499Z,101132.53
2023-01-21T01:22:30.106Z,101130.75
2023-01-21T01:24:31.704Z,101133.66
2023-01-21T01:26:33.844Z,101136.91
2023-01-21T01:28:35.892Z,101134.38
2023-01-21T01:30:38.798Z,101134.97
2023-01-21T01:32:40.379Z,101136.69
2023-01-21T01:34:41.990Z,101137.34
2023-01-21T01:36:43.549Z,101139.06
2023-01-21T01:38:45.567Z,101139.22
2023-01-21T01:40:47.306Z,101147.25
2023-01-21T01:42:48.871Z,101148.81
2023-01-21T01:44:58.814Z,101145.81
2023-01-21T01:47:03.757Z,101151.03
2023-01-21T01:49:11.672Z,101150.28
2023-01-21T01:51:14.367Z,101147.22
2023-01-21T01:53:18.641Z,101151.91
2023-01-21T01:55:20.630Z,101152.78
2023-01-21T01:57:25.367Z,101156.81
2023-01-21T01:59:27.863Z,101162.59
2023-01-21T02:01:29.508Z,101162.53
2023-01-21T02:03:37.995Z,101166.38
2023-01-21T02:05:41.786Z,101158.38
2023-01-21T02:07:45.473Z,101170.88
2023-01-21T02:09:47.227Z,101167.91
2023-01-21T02:11:49.187Z,101166.13
2023-01-21T02:13:53.875Z,101163.72
2023-01-21T02:16:09.927Z,101171.28
2023-01-21T02:18:24.574Z,101168.53
2023-01-21T02:21:09.101Z,101170.78
2023-01-21T02:23:16.954Z,101179.19
2023-01-21T02:25:51.893Z,101181.81
2023-01-21T02:28:26.581Z,101186.00
2023-01-21T02:30:53.143Z,101184.81
2023-01-21T02:33:33.249Z,101194.06
2023-01-21T02:35:42.835Z,101187.75
2023-01-21T02:37:51.875Z,101190.00
2023-01-21T02:40:10.333Z,101195.75
2023-01-21T02:42:22.214Z,101195.31
2023-01-21T02:44:31.068Z,101194.44
2023-01-21T02:46:39.987Z,101200.34
2023-01-21T02:48:50.209Z,101200.31
2023-01-21T02:50:53.646Z,101208.09
2023-01-21T02:52:56.556Z,101210.13
2023-01-21T02:54:59.903Z,101201.47
2023-01-21T02:57:01.897Z,101214.13
2023-01-21T02:59:05.532Z,101208.19
2023-01-21T03:01:17.497Z,101214.31
2023-01-21T03:03:45.547Z,101213.69
2023-01-21T03:06:31.175Z,101219.06
2023-01-21T03:08:40.952Z,101212.34
2023-01-21T03:10:46.930Z,101211.13
2023-01-21T03:12:55.952Z,101218.91
2023-01-21T03:15:02.091Z,101231.19
2023-01-21T03:17:09.238Z,101231.84
2023-01-21T03:19:14.088Z,101226.72
2023-01-21T03:21:23.783Z,101223.25
2023-01-21T03:23:29.862Z,101226.50
2023-01-21T03:25:34.039Z,101230.22
2023-01-21T03:27:41.232Z,101226.50
2023-01-21T03:29:46.532Z,101231.63
2023-01-21T03:31:53.613Z,101234.81
2023-01-21T03:33:58.266Z,101233.38
2023-01-21T03:36:04.635Z,101230.69
2023-01-21T03:38:13.940Z,101232.25
2023-01-21T03:40:21.653Z,101238.97
2023-01-21T03:42:23.645Z,101239.13
2023-01-21T03:44:26.070Z,101246.09
2023-01-21T03:46:36.509Z,101243.22
2023-01-21T03:48:43.906Z,101250.34
2023-01-21T03:50:53.086Z,101255.69
2023-01-21T03:52:55.007Z,101259.56
2023-01-21T03:54:58.911Z,101261.25
2023-01-21T03:57:00.482Z,101261.44
2023-01-21T03:59:02.027Z,101262.88
2023-01-21T04:01:03.650Z,101262.47
2023-01-21T04:03:05.271Z,101263.53
2023-01-21T04:05:07.432Z,101265.09
2023-01-21T04:07:09.464Z,101267.56
2023-01-21T04:09:11.408Z,101270.41
2023-01-21T04:11:14.427Z,101273.59
2023-01-21T04:13:15.971Z,101275.66
2023-01-21T04:15:17.654Z,101278.69
2023-01-21T04:17:19.197Z,101279.16
2023-01-21T04:19:20.919Z,101285.53
2023-01-21T04:21:22.491Z,101285.94
2023-01-21T04:23:24.283Z,101279.34
2023-01-21T04:25:25.896Z,101284.25
2023-01-21T04:27:28.862Z,101279.53
2023-01-21T04:29:30.451Z,101279.91
2023-01-21T04:31:32.020Z,101287.31
2023-01-21T04:33:33.796Z,101287.31
2023-01-21T04:35:35.626Z,101298.59
2023-01-21T04:37:37.425Z,101290.03
2023-01-21T04:39:39.004Z,101294.28
2023-01-21T04:41:40.592Z,101301.38
2023-01-21T04:43:43.549Z,101301.69
2023-01-21T04:45:45.278Z,101306.69
2023-01-21T04:47:46.912Z,101304.28
2023-01-21T04:49:48.507Z,101306.53
2023-01-21T04:51:50.073Z,101304.09
2023-01-21T04:53:51.699Z,101307.38
2023-01-21T04:55:53.960Z,101309.81
2023-01-21T04:57:55.507Z,101309.41
2023-01-21T04:59:58.486Z,101309.66
2023-01-21T05:02:00.207Z,101318.84
2023-01-21T05:04:01.815Z,101316.75
2023-01-21T05:06:03.471Z,101320.44
2023-01-21T05:08:05.375Z,101324.75
2023-01-21T05:10:07.469Z,101321.03
2023-01-21T05:12:09.933Z,101319.56
2023-01-21T05:14:11.522Z,101333.19
2023-01-21T05:16:14.496Z,101339.47
2023-01-21T05:18:16.165Z,101334.34
2023-01-21T05:20:18.211Z,101338.72
2023-01-21T05:22:19.901Z,101338.31
2023-01-21T05:24:21.441Z,101347.47
2023-01-21T05:26:23.039Z,101343.88
2023-01-21T05:28:24.996Z,101343.75
2023-01-21T05:30:26.488Z,101346.78
2023-01-21T05:32:29.349Z,101353.00
2023-01-21T05:34:30.901Z,101341.34
2023-01-21T05:36:32.437Z,101356.22
2023-01-21T05:38:34.002Z,101356.72
2023-01-21T05:40:35.558Z,101363.94
2023-01-21T05:42:37.115Z,101362.94
2023-01-21T05:44:38.694Z,101367.66
2023-01-21T05:46:40.194Z,101376.53
2023-01-21T05:48:43.076Z,101380.94
2023-01-21T05:50:44.889Z,101377.56
2023-01-21T05:52:46.445Z,101387.41
2023-01-21T05:55:02.256Z,101388.03
2023-01-21T05:57:04.226Z,101386.06
2023-01-21T05:59:05.725Z,101388.91
2023-01-21T06:01:07.314Z,101390.25
2023-01-21T06:03:09.333Z,101388.03
2023-01-21T06:05:12.182Z,101389.69
2023-01-21T06:07:13.741Z,101397.13
2023-01-21T06:09:15.372Z,101398.81
2023-01-21T06:11:19.212Z,101399.56
2023-01-21T06:13:20.720Z,101409.47
2023-01-21T06:15:22.291Z,101403.56
2023-01-21T06:17:23.794Z,101403.06
2023-01-21T06:19:25.351Z,101407.81
2023-01-21T06:21:28.269Z,101410.69
2023-01-21T06:23:29.791Z,101415.94
2023-01-21T06:25:32.180Z,101415.97
2023-01-21T06:27:33.879Z,101417.41
2023-01-21T06:29:35.518Z,101420.75
2023-01-21T06:31:37.224Z,101418.50
2023-01-21T06:33:38.958Z,101426.19
2023-01-21T06:35:40.507Z,101419.16
2023-01-21T06:37:44.210Z,101419.22
2023-01-21T06:39:45.865Z,101418.28
2023-01-21T06:41:47.403Z,101425.03
2023-01-21T06:43:48.969Z,101426.75
2023-01-21T06:45:50.556Z,101432.50
2023-01-21T06:47:52.124Z,101439.09
2023-01-21T06:49:53.776Z,101449.78
2023-01-21T06:51:55.385Z,101458.41
2023-01-21T06:53:58.344Z,101449.81
2023-01-21T06:55:59.883Z,101452.72
2023-01-21T06:58:01.438Z,101447.81
2023-01-21T07:00:03.699Z,101455.00
2023-01-21T07:02:05.367Z,101452.75
2023-01-21T07:04:07.013Z,101457.03
2023-01-21T07:06:08.553Z,101453.56
2023-01-21T07:08:10.061Z,101456.47
2023-01-21T07:10:13.129Z,101451.31
2023-01-21T07:12:14.904Z,101466.47
2023-01-21T07:14:16.427Z,101467.28
2023-01-21T07:16:18.110Z,101462.75
2023-01-21T07:18:19.669Z,101474.22
2023-01-21T07:20:23.629Z,101478.28
2023-01-21T07:22:25.311Z,101473.94
2023-01-21T07:24:26.847Z,101481.31
2023-01-21T07:26:29.759Z,101474.34
2023-01-21T07:28:31.774Z,101476.34
2023-01-21T07:30:33.307Z,101480.34
2023-01-21T07:32:34.865Z,101482.94
2023-01-21T07:34:36.411Z,101487.16
2023-01-21T07:36:37.940Z,101490.81
2023-01-21T07:38:39.611Z,101492.00
2023-01-21T07:40:43.464Z,101491.66
2023-01-21T07:42:50.797Z,101501.91
2023-01-21T07:44:52.438Z,101489.22
2023-01-21T07:46:54.012Z,101501.03
2023-01-21T07:48:55.632Z,101503.41
2023-01-21T07:50:57.355Z,101508.16
2023-01-21T07:52:59.093Z,101510.28
2023-01-21T07:55:00.650Z,101512.63
2023-01-21T07:57:02.246Z,101515.19
2023-01-21T07:59:05.221Z,101513.00
2023-01-21T08:01:08.620Z,101521.44
2023-01-21T08:03:10.595Z,101510.81
2023-01-21T08:05:12.447Z,101513.53
2023-01-21T08:07:14.334Z,101511.28
2023-01-21T08:09:16.095Z,101504.91
2023-01-21T08:11:17.988Z,101518.63
2023-01-21T08:13:19.887Z,101516.19
2023-01-21T08:15:22.835Z,101523.78
2023-01-21T08:17:24.530Z,101531.63
2023-01-21T08:19:26.373Z,101533.28
2023-01-21T08:21:27.888Z,101531.44
2023-01-21T08:23:29.477Z,101533.91
2023-01-21T08:25:31.072Z,101532.28
2023-01-21T08:27:33.153Z,101532.50
2023-01-21T08:29:34.786Z,101536.84
2023-01-21T08:31:37.733Z,101530.91
2023-01-21T08:33:39.734Z,101535.00
2023-01-21T08:35:41.422Z,101538.31
2023-01-21T08:37:43.270Z,101546.72
2023-01-21T08:39:44.921Z,101537.91
2023-01-21T08:41:46.537Z,101550.41
2023-01-21T08:43:48.115Z,101547.53
2023-01-21T08:45:50.063Z,101558.44
2023-01-21T08:47:53.382Z,101551.84
2023-01-21T08:49:55.183Z,101546.13
2023-01-21T08:51:58.865Z,101558.84
2023-01-21T08:54:00.786Z,101559.88
2023-01-21T08:56:04.041Z,101557.84
2023-01-21T08:58:05.623Z,101565.63
2023-01-21T09:00:08.576Z,101555.13
2023-01-21T09:02:11.364Z,101563.53
2023-01-21T09:04:14.328Z,101561.69
2023-01-21T09:06:15.935Z,101565.19
2023-01-21T09:08:17.839Z,101560.25
2023-01-21T09:10:19.512Z,101565.59
2023-01-21T09:12:21.089Z,101575.66
2023-01-21T09:14:22.698Z,101576.28
2023-01-21T09:16:24.388Z,101578.72
2023-01-21T09:18:26.246Z,101576.69
2023-01-21T09:20:29.200Z,101579.78
2023-01-21T09:22:30.753Z,101581.19
2023-01-21T09:24:32.470Z,101581.59
2023-01-21T09:26:34.170Z,101590.41
2023-01-21T09:28:38.035Z,101589.63
2023-01-21T09:30:39.611Z,101595.34
2023-01-21T09:32:41.293Z,101590.03
2023-01-21T09:34:42.846Z,101599.66
2023-01-21T09:36:46.019Z,101587.97
2023-01-21T09:38:48.728Z,101596.19
2023-01-21T09:40:50.352Z,101609.94
2023-01-21T09:42:51.915Z,101604.78
2023-01-21T09:44:56.667Z,101596.59
2023-01-21T09:47:02.825Z,101610.56
2023-01-21T09:49:09.927Z,101605.81
2023-01-21T09:51:19.706Z,101609.72
2023-01-21T09:53:32.193Z,101604.78
2023-01-21T09:55:40.947Z,101609.72
2023-01-21T09:58:05.425Z,101607.47
2023-01-21T10:00:31.500Z,101609.09
2023-01-21T10:02:42.037Z,101602.75
2023-01-21T10:04:49.813Z,101600.69
2023-01-21T10:06:56.941Z,101603.16
2023-01-21T10:09:21.376Z,101602.34
2023-01-21T10:11:36.967Z,101604.56
2023-01-21T10:13:48.577Z,101606.22
2023-01-21T10:16:02.364Z,101609.72
2023-01-21T10:18:08.124Z,101610.34
2023-01-21T10:20:16.984Z,101603.97
2023-01-21T10:22:23.628Z,101600.69
2023-01-21T10:24:34.981Z,101603.34
2023-01-21T10:26:36.611Z,101606.63
2023-01-21T10:28:41.566Z,101603.75
2023-01-21T10:30:48.008Z,101608.25
2023-01-21T10:32:52.049Z,101604.38
2023-01-21T10:34:55.030Z,101592.25
2023-01-21T10:37:03.909Z,101600.47
2023-01-21T10:39:14.832Z,101586.50
2023-01-21T10:41:47.435Z,101592.44
2023-01-21T10:43:56.054Z,101593.88
2023-01-21T10:46:07.693Z,101595.31
2023-01-21T10:48:15.599Z,101593.88
2023-01-21T10:50:27.095Z,101596.31
2023-01-21T10:52:37.142Z,101598.16
2023-01-21T10:54:47.725Z,101599.19
2023-01-21T10:56:57.259Z,101594.66
2023-01-21T10:59:02.947Z,101592.59
2023-01-21T11:01:07.766Z,101594.03
2023-01-21T11:03:23.694Z,101586.88
2023-01-21T11:05:26.179Z,101584.63
2023-01-21T11:07:34.399Z,101590.56
2023-01-21T11:09:39.816Z,101585.63
2023-01-21T11:11:41.733Z,101589.53
2023-01-21T11:13:44.735Z,101585.00
2023-01-21T11:15:51.850Z,101589.53
2023-01-21T11:17:53.901Z,101576.56
2023-01-21T11:19:58.787Z,101585.59
2023-01-21T11:22:02.355Z,101589.25
2023-01-21T11:24:20.243Z,101590.91
2023-01-21T11:26:26.908Z,101590.91
2023-01-21T11:28:29.172Z,101595.63
2023-01-21T11:30:51.897Z,101598.91
2023-01-21T11:32:53.700Z,101600.97
2023-01-21T11:35:01.754Z,101594.59
2023-01-21T11:37:06.329Z,101588.22
2023-01-21T11:39:14.171Z,101587.56
2023-01-21T11:41:20.193Z,101593.13
2023-01-21T11:43:33.689Z,101588.59
2023-01-21T11:45:37.247Z,101590.00
2023-01-21T11:47:47.390Z,101590.00
2023-01-21T11:49:49.076Z,101596.97
2023-01-21T11:52:05.460Z,101600.72
2023-01-21T11:54:10.826Z,101607.69
2023-01-21T11:56:15.168Z,101602.34
2023-01-21T11:58:19.087Z,101600.28
2023-01-21T12:00:23.765Z,101603.59
2023-01-21T12:02:30.222Z,101605.63
2023-01-21T12:04:32.852Z,101610.38
2023-01-21T12:06:36.916Z,101604.47
2023-01-21T12:08:40.437Z,101605.50
2023-01-21T12:10:44.814Z,101604.50
2023-01-21T12:13:01.003Z,101600.22
2023-01-21T12:15:15.480Z,101595.09
2023-01-21T12:17:30.180Z,101586.47
2023-01-21T12:19:50.059Z,101588.50
2023-01-21T12:22:07.702Z,101593.84
2023-01-21T12:24:24.035Z,101594.25
2023-01-21T12:26:36.973Z,101592.38
2023-01-21T12:29:03.519Z,101596.69
2023-01-21T12:31:14.940Z,101589.31
2023-01-21T12:33:20.942Z,101592.22
2023-01-21T12:35:29.367Z,101582.94
2023-01-21T12:37:35.869Z,101588.06
2023-01-21T12:39:37.816Z,101588.88
2023-01-21T12:41:42.270Z,101592.56
2023-01-21T12:43:46.687Z,101588.50
2023-01-21T12:45:53.529Z,101590.50
2023-01-21T12:47:59.272Z,101589.84
2023-01-21T12:50:21.217Z,101592.53
2023-01-21T12:52:31.300Z,101590.25
2023-01-21T12:54:40.528Z,101592.31
2023-01-21T12:56:47.920Z,101592.53
2023-01-21T12:58:54.304Z,101597.63
2023-01-21T13:01:01.076Z,101598.41
2023-01-21T13:03:16.164Z,101602.44
2023-01-21T13:05:24.239Z,101597.69
2023-01-21T13:07:35.194Z,101597.25
2023-01-21T13:09:44.051Z,101597.03
2023-01-21T13:11:51.231Z,101599.09
2023-01-21T13:14:15.291Z,101594.97
2023-01-21T13:16:17.722Z,101591.25
2023-01-21T13:18:25.470Z,101598.81
2023-01-21T13:20:29.020Z,101601.19
2023-01-21T13:22:42.550Z,101597.31
2023-01-21T13:25:00.960Z,101594.06
2023-01-21T13:27:15.095Z,101587.09
2023-01-21T13:29:26.035Z,101591.41
2023-01-21T13:31:33.644Z,101589.19
2023-01-21T13:33:49.884Z,101590.84
2023-01-21T13:36:02.363Z,101589.41
2023-01-21T13:38:14.035Z,101585.28
2023-01-21T13:40:28.383Z,101590.00
2023-01-21T13:42:38.957Z,101595.75
2023-01-21T13:45:19.058Z,101592.44
2023-01-21T13:47:31.840Z,101590.41
2023-01-21T13:50:03.484Z,101591.03
2023-01-21T13:52:12.630Z,101586.72
2023-01-21T13:54:47.392Z,101586.53
2023-01-21T13:57:04.206Z,101587.13
2023-01-21T13:59:12.260Z,101588.75
2023-01-21T14:01:19.956Z,101582.41
2023-01-21T14:03:30.007Z,101587.97
2023-01-21T14:05:37.652Z,101588.34
2023-01-21T14:07:43.883Z,101590.63
2023-01-21T14:09:52.128Z,101590.41
2023-01-21T14:11:59.460Z,101596.38
2023-01-21T14:14:34.966Z,101597.78
2023-01-21T14:17:07.114Z,101600.28
2023-01-21T14:19:29.677Z,101598.66
2023-01-21T14:22:02.874Z,101600.69
2023-01-21T14:24:16.105Z,101592.66
2023-01-21T14:26:33.317Z,101601.94
2023-01-21T14:28:42.355Z,101596.59
2023-01-21T14:30:47.913Z,101597.59
2023-01-21T14:32:54.170Z,101594.53
2023-01-21T14:35:09.832Z,101599.88
2023-01-21T14:37:15.707Z,101600.28
2023-01-21T14:39:31.605Z,101607.50
2023-01-21T14:42:00.590Z,101605.22
2023-01-21T14:44:02.159Z,101616.72
2023-01-21T14:46:23.694Z,101616.72
2023-01-21T14:48:30.369Z,101619.16
2023-01-21T14:50:52.783Z,101616.53
2023-01-21T14:52:54.473Z,101620.22
2023-01-21T14:54:56.385Z,101614.47
2023-01-21T14:57:13.661Z,101623.91
2023-01-21T14:59:34.282Z,101622.91
2023-01-21T15:01:42.469Z,101620.03
2023-01-21T15:03:49.837Z,101614.06
2023-01-21T15:05:53.818Z,101616.31
2023-01-21T15:08:06.191Z,101613.84
2023-01-21T15:10:14.520Z,101618.59
2023-01-21T15:12:22.522Z,101617.13
2023-01-21T15:14:27.867Z,101624.75
2023-01-21T15:16:38.118Z,101627.81
2023-01-21T15:18:41.761Z,101624.97
2023-01-21T15:20:46.192Z,101621.66
2023-01-21T15:23:03.736Z,101616.72
2023-01-21T15:25:29.970Z,101623.31
2023-01-21T15:27:32.945Z,101621.03
2023-01-21T15:29:36.421Z,101622.91
2023-01-21T15:31:43.876Z,101621.88
2023-01-21T15:33:47.853Z,101633.34
2023-01-21T15:35:50.051Z,101632.97
2023-01-21T15:37:53.632Z,101628.88
2023-01-21T15:39:59.739Z,101634.59
2023-01-21T15:42:14.264Z,101632.59
2023-01-21T15:44:36.547Z,101628.28
2023-01-21T15:46:48.363Z,101631.97
2023-01-21T15:49:02.713Z,101628.44
2023-01-21T15:51:13.419Z,101627.25
2023-01-21T15:53:45.252Z,101629.91
2023-01-21T15:56:05.035Z,101632.78
2023-01-21T15:58:17.932Z,101629.72
2023-01-21T16:00:31.529Z,101620.91
2023-01-21T16:02:43.948Z,101620.72
2023-01-21T16:04:58.489Z,101627.91
2023-01-21T16:07:22.359Z,101632.00
2023-01-21T16:09:32.900Z,101636.69
2023-01-21T16:11:52.111Z,101636.94
2023-01-21T16:13:57.520Z,101638.13
2023-01-21T16:16:11.269Z,101639.38
2023-01-21T16:18:23.072Z,101633.44
2023-01-21T16:20:25.051Z,101639.84
2023-01-21T16:22:30.759Z,101636.13
2023-01-21T16:24:34.286Z,101634.06
2023-01-21T16:26:35.972Z,101631.41
2023-01-21T16:28:42.129Z,101633.88
2023-01-21T16:30:53.559Z,101637.75
2023-01-21T16:33:10.784Z,101642.91
2023-01-21T16:35:12.773Z,101638.38
2023-01-21T16:37:17.034Z,101647.66
2023-01-21T16:39:19.720Z,101644.34
2023-01-21T16:41:23.707Z,101647.44
2023-01-21T16:43:26.711Z,101646.00
2023-01-21T16:45:28.592Z,101651.53
2023-01-21T16:47:33.658Z,101661.78
2023-01-21T16:49:36.676Z,101658.94
2023-01-21T16:51:41.821Z,101650.69
2023-01-21T16:53:44.258Z,101655.25
2023-01-21T16:55:47.584Z,101653.38
2023-01-21T16:57:50.218Z,101645.38
2023-01-21T16:59:52.080Z,101648.66
2023-01-21T17:01:55.251Z,101650.31
2023-01-21T17:03:58.384Z,101650.28
2023-01-21T17:06:12.240Z,101649.28
2023-01-21T17:08:15.724Z,101647.03
2023-01-21T17:10:20.525Z,101649.28
2023-01-21T17:12:24.263Z,101647.88
2023-01-21T17:14:28.785Z,101657.09
2023-01-21T17:16:34.339Z,101660.19
2023-01-21T17:18:38.894Z,101654.41
2023-01-21T17:20:45.042Z,101650.72
2023-01-21T17:22:48.354Z,101646.63
2023-01-21T17:25:02.618Z,101650.09
2023-01-21T17:27:09.437Z,101645.78
2023-01-21T17:29:17.587Z,101645.38
2023-01-21T17:31:26.326Z,101651.97
2023-01-21T17:33:28.859Z,101657.09
2023-01-21T17:35:31.682Z,101656.28
2023-01-21T17:37:50.992Z,101659.34
2023-01-21T17:39:59.006Z,101654.41
2023-01-21T17:42:03.608Z,101657.72
2023-01-21T17:44:14.785Z,101667.78
2023-01-21T17:46:16.635Z,101668.38
2023-01-21T17:48:26.270Z,101663.47
2023-01-21T17:50:29.734Z,101669.81
2023-01-21T17:52:31.339Z,101670.44
2023-01-21T17:54:32.919Z,101668.78
2023-01-21T17:56:41.241Z,101670.03
2023-01-21T17:58:48.839Z,101666.94
2023-01-21T18:00:50.481Z,101674.56
2023-01-21T18:02:52.233Z,101667.56
2023-01-21T18:04:53.955Z,101673.72
2023-01-21T18:06:56.237Z,101669.81
2023-01-21T18:08:58.050Z,101674.75
2023-01-21T18:10:59.624Z,101675.59
2023-01-21T18:13:02.622Z,101673.50
2023-01-21T18:15:04.896Z,101672.91
2023-01-21T18:17:06.626Z,101677.63
2023-01-21T18:19:11.097Z,101666.72
2023-01-21T18:21:18.611Z,101674.72
2023-01-21T18:23:20.481Z,101665.31
2023-01-21T18:25:24.101Z,101667.56
2023-01-21T18:27:28.888Z,101665.69
2023-01-21T18:29:31.830Z,101667.97
2023-01-21T18:31:33.489Z,101667.34
2023-01-21T18:33:35.091Z,101668.16
2023-01-21T18:35:36.676Z,101665.69
2023-01-21T18:37:38.203Z,101662.00
2023-01-21T18:39:40.350Z,101661.16
2023-01-21T18:41:42.028Z,101659.94
2023-01-21T18:43:43.652Z,101655.25
2023-01-21T18:45:46.742Z,101658.31
2023-01-21T18:47:50.100Z,101662.41
2023-01-21T18:49:51.700Z,101671.88
2023-01-21T18:51:53.335Z,101681.09
2023-01-21T18:53:54.892Z,101681.72
2023-01-21T18:55:56.544Z,101678.56
2023-01-21T18:57:58.367Z,101678.38
2023-01-21T18:59:59.902Z,101680.22
2023-01-21T19:02:03.050Z,101672.22
2023-01-21T19:04:04.856Z,101675.13
2023-01-21T19:06:12.847Z,101669.78
2023-01-21T19:08:17.702Z,101674.88
2023-01-21T19:10:22.123Z,101675.91
2023-01-21T19:12:24.287Z,101673.22
2023-01-21T19:14:25.839Z,101673.06
2023-01-21T19:16:27.441Z,101677.38
2023-01-21T19:18:30.422Z,101671.66
2023-01-21T19:20:32.042Z,101676.38
2023-01-21T19:22:33.647Z,101676.78
2023-01-21T19:24:37.518Z,101673.28
2023-01-21T19:26:39.181Z,101682.72
2023-01-21T19:28:41.186Z,101668.34
2023-01-21T19:30:42.890Z,101667.31
2023-01-21T19:32:44.506Z,101672.66
2023-01-21T19:34:47.641Z,101664.44
2023-01-21T19:36:49.321Z,101672.28
2023-01-21T19:38:54.507Z,101664.28
2023-01-21T19:40:56.150Z,101669.84
2023-01-21T19:42:57.740Z,101664.06
2023-01-21T19:44:59.306Z,101662.03
2023-01-21T19:47:01.678Z,101659.75
2023-01-21T19:49:12.795Z,101663.66
2023-01-21T19:51:15.820Z,101665.72
2023-01-21T19:53:19.231Z,101659.16
2023-01-21T19:55:22.863Z,101660.78
2023-01-21T19:57:24.757Z,101659.97
2023-01-21T19:59:26.340Z,101664.50
2023-01-21T20:01:28.043Z,101666.75
2023-01-21T20:03:30.574Z,101665.53
2023-01-21T20:05:32.909Z,101670.44
2023-01-21T20:07:36.216Z,101675.19
2023-01-21T20:09:37.934Z,101671.91
2023-01-21T20:11:39.508Z,101669.63
2023-01-21T20:13:41.016Z,101672.91
2023-01-21T20:15:44.473Z,101669.00
2023-01-21T20:17:48.764Z,101671.69
2023-01-21T20:19:50.403Z,101666.97
2023-01-21T20:22:02.072Z,101668.00
2023-01-21T20:24:06.457Z,101661.84
2023-01-21T20:26:13.839Z,101669.41
2023-01-21T20:28:20.212Z,101661.84
2023-01-21T20:30:23.650Z,101657.94
2023-01-21T20:32:25.326Z,101655.47
2023-01-21T20:34:26.932Z,101652.59
2023-01-21T20:36:36.000Z,101653.22
2023-01-21T20:38:38.200Z,101650.16
2023-01-21T20:40:41.349Z,101648.06
2023-01-21T20:42:43.113Z,101654.63
2023-01-21T20:44:44.644Z,101648.50
2023-01-21T20:46:46.424Z,101654.84
2023-01-21T20:48:48.496Z,101653.63
2023-01-21T20:50:50.074Z,101651.16
2023-01-21T20:52:52.888Z,101662.03
2023-01-21T20:54:54.471Z,101649.94
2023-01-21T20:56:57.486Z,101653.41
2023-01-21T20:58:59.333Z,101656.50
2023-01-21T21:01:00.990Z,101648.66
2023-01-21T21:03:02.953Z,101652.97
2023-01-21T21:05:05.170Z,101648.06
2023-01-21T21:07:11.149Z,101652.19
2023-01-21T21:09:12.700Z,101642.91
2023-01-21T21:11:15.040Z,101648.03
2023-01-21T21:13:18.337Z,101646.00
2023-01-21T21:15:20.278Z,101643.94
2023-01-21T21:17:22.039Z,101642.50
2023-01-21T21:19:24.014Z,101646.38
2023-01-21T21:21:25.723Z,101644.94
2023-01-21T21:23:27.323Z,101649.47
2023-01-21T21:25:30.931Z,101645.97
2023-01-21T21:27:32.511Z,101644.53
2023-01-21T21:29:35.399Z,101646.16
2023-01-21T21:31:37.083Z,101647.59
2023-01-21T21:33:38.802Z,101640.41
2023-01-21T21:35:40.826Z,101638.78
2023-01-21T21:37:42.368Z,101639.63
2023-01-21T21:39:45.708Z,101633.88
2023-01-21T21:41:47.320Z,101633.66
2023-01-21T21:43:48.944Z,101633.06
2023-01-21T21:45:51.837Z,101632.84
2023-01-21T21:47:53.373Z,101628.53
2023-01-21T21:49:56.679Z,101626.69
2023-01-21T21:51:58.266Z,101619.50
2023-01-21T21:53:59.810Z,101625.44
2023-01-21T21:56:02.960Z,101625.03
2023-01-21T21:58:04.566Z,101623.41
2023-01-21T22:00:07.895Z,101622.19
2023-01-21T22:02:13.555Z,101624.66
2023-01-21T22:04:15.138Z,101623.22
2023-01-21T22:06:18.078Z,101623.41
2023-01-21T22:08:19.891Z,101618.91
2023-01-21T22:10:21.487Z,101622.59
2023-01-21T22:12:23.031Z,101610.28
2023-01-21T22:14:24.556Z,101616.41
2023-01-21T22:16:28.152Z,101608.22
2023-01-21T22:18:31.696Z,101613.75
2023-01-21T22:20:33.250Z,101610.06
2023-01-21T22:22:34.798Z,101605.78
2023-01-21T22:24:36.316Z,101611.13
2023-01-21T22:26:38.101Z,101604.94
2023-01-21T22:28:40.868Z,101601.22
2023-01-21T22:30:42.510Z,101598.56
2023-01-21T22:32:44.146Z,101604.13
2023-01-21T22:34:47.046Z,101597.53
2023-01-21T22:36:48.669Z,101601.22
2023-01-21T22:38:51.461Z,101595.88
2023-01-21T22:40:53.401Z,101596.13
2023-01-21T22:42:55.017Z,101589.94
2023-01-21T22:44:56.524Z,101587.47
2023-01-21T22:46:58.098Z,101591.56
2023-01-21T22:48:59.999Z,101581.69
2023-01-21T22:51:03.124Z,101587.25
2023-01-21T22:53:04.755Z,101577.41
2023-01-21T22:55:07.239Z,101581.53
2023-01-21T22:57:08.751Z,101570.63
2023-01-21T22:59:10.320Z,101564.66
2023-01-21T23:01:21.900Z,101570.19
2023-01-21T23:03:24.602Z,101568.16
2023-01-21T23:05:28.070Z,101567.69
2023-01-21T23:07:31.074Z,101567.91
2023-01-21T23:09:32.642Z,101562.59
2023-01-21T23:11:34.174Z,101563.41
2023-01-21T23:13:35.818Z,101565.03
2023-01-21T23:15:41.922Z,101562.16
2023-01-21T23:17:43.470Z,101561.78
2023-01-21T23:19:45.065Z,101562.34
2023-01-21T23:21:46.625Z,101561.56
2023-01-21T23:23:55.072Z,101552.75
2023-01-21T23:25:56.635Z,101555.16
2023-01-21T23:27:58.213Z,101558.84
2023-01-21T23:29:59.766Z,101553.53
2023-01-21T23:32:01.495Z,101552.69
2023-01-21T23:34:03.216Z,101548.78
2023-01-21T23:36:05.436Z,101553.53
2023-01-21T23:38:06.976Z,101553.28
2023-01-21T23:40:11.060Z,101549.44
2023-01-21T23:42:14.771Z,101542.22
2023-01-21T23:44:16.287Z,101546.94
2023-01-21T23:46:18.509Z,101547.78
2023-01-21T23:48:20.220Z,101538.13
2023-01-21T23:50:22.030Z,101542.44
2023-01-21T23:52:23.669Z,101542.88